sensor_id;sensor_type;location;lat;lon;timestamp;P1;durP1;ratioP1;P2;durP2;ratioP2
26622;SDS011;14254;50.968;5.366;2023-08-24T00:02:02;15.73;;;8.13;;
26622;SDS011;14254;50.968;5.366;2023-08-24T00:04:28;15.90;;;9.65;;
26622;SDS011;14254;50.968;5.366;2023-08-24T00:06:54;16.08;;;8.93;;
26622;SDS011;14254;50.968;5.366;2023-08-24T00:09:20;17.92;;;8.88;;
26622;SDS011;14254;50.968;5.366;2023-08-24T00:11:46;13.27;;;9.18;;
26622;SDS011;14254;50.968;5.366;2023-08-24T00:14:12;14.52;;;8.60;;
26622;SDS011;14254;50.968;5.366;2023-08-24T00:16:38;12.13;;;8.77;;
26622;SDS011;14254;50.968;5.366;2023-08-24T00:19:03;12.15;;;8.90;;
26622;SDS011;14254;50.968;5.366;2023-08-24T00:21:29;17.77;;;8.85;;
26622;SDS011;14254;50.968;5.366;2023-08-24T00:23:55;20.95;;;8.82;;
26622;SDS011;14254;50.968;5.366;2023-08-24T00:26:21;12.63;;;8.35;;
26622;SDS011;14254;50.968;5.366;2023-08-24T00:28:48;15.55;;;9.20;;
26622;SDS011;14254;50.968;5.366;2023-08-24T00:31:15;25.20;;;9.70;;
26622;SDS011;14254;50.968;5.366;2023-08-24T00:33:41;14.23;;;9.05;;
26622;SDS011;14254;50.968;5.366;2023-08-24T00:36:07;15.05;;;8.73;;
26622;SDS011;14254;50.968;5.366;2023-08-24T00:38:32;16.98;;;9.02;;
26622;SDS011;14254;50.968;5.366;2023-08-24T00:40:58;13.48;;;7.85;;
26622;SDS011;14254;50.968;5.366;2023-08-24T00:43:27;13.70;;;8.23;;
26622;SDS011;14254;50.968;5.366;2023-08-24T00:45:57;12.48;;;8.15;;
26622;SDS011;14254;50.968;5.366;2023-08-24T00:48:25;11.23;;;8.10;;
26622;SDS011;14254;50.968;5.366;2023-08-24T00:50:54;14.23;;;8.65;;
26622;SDS011;14254;50.968;5.366;2023-08-24T00:53:20;16.92;;;9.32;;
26622;SDS011;14254;50.968;5.366;2023-08-24T00:55:48;17.40;;;10.23;;
26622;SDS011;14254;50.968;5.366;2023-08-24T00:58:14;20.08;;;9.57;;
26622;SDS011;14254;50.968;5.366;2023-08-24T01:00:40;18.27;;;9.32;;
26622;SDS011;14254;50.968;5.366;2023-08-24T01:03:06;13.65;;;8.75;;
26622;SDS011;14254;50.968;5.366;2023-08-24T01:05:32;14.55;;;8.73;;
26622;SDS011;14254;50.968;5.366;2023-08-24T01:07:58;22.65;;;10.65;;
26622;SDS011;14254;50.968;5.366;2023-08-24T01:10:23;10.85;;;9.13;;
26622;SDS011;14254;50.968;5.366;2023-08-24T01:15:54;14.80;;;10.02;;
26622;SDS011;14254;50.968;5.366;2023-08-24T01:18:25;16.00;;;9.10;;
26622;SDS011;14254;50.968;5.366;2023-08-24T01:20:53;11.75;;;9.10;;
26622;SDS011;14254;50.968;5.366;2023-08-24T01:26:12;15.00;;;10.15;;
26622;SDS011;14254;50.968;5.366;2023-08-24T01:28:45;18.77;;;9.55;;
26622;SDS011;14254;50.968;5.366;2023-08-24T01:31:15;17.30;;;10.07;;
26622;SDS011;14254;50.968;5.366;2023-08-24T01:33:42;14.38;;;9.07;;
26622;SDS011;14254;50.968;5.366;2023-08-24T01:36:09;18.30;;;9.35;;
26622;SDS011;14254;50.968;5.366;2023-08-24T01:38:37;15.38;;;9.93;;
26622;SDS011;14254;50.968;5.366;2023-08-24T01:43:31;12.30;;;9.25;;
26622;SDS011;14254;50.968;5.366;2023-08-24T01:46:03;12.13;;;8.82;;
26622;SDS011;14254;50.968;5.366;2023-08-24T01:48:30;18.00;;;10.07;;
26622;SDS011;14254;50.968;5.366;2023-08-24T01:50:57;17.10;;;9.55;;
26622;SDS011;14254;50.968;5.366;2023-08-24T01:53:23;12.55;;;9.77;;
26622;SDS011;14254;50.968;5.366;2023-08-24T01:55:50;14.70;;;9.40;;
26622;SDS011;14254;50.968;5.366;2023-08-24T01:58:16;14.48;;;9.77;;
26622;SDS011;14254;50.968;5.366;2023-08-24T02:00:41;15.73;;;8.80;;
26622;SDS011;14254;50.968;5.366;2023-08-24T02:03:07;14.15;;;9.77;;
26622;SDS011;14254;50.968;5.366;2023-08-24T02:05:33;14.75;;;9.32;;
26622;SDS011;14254;50.968;5.366;2023-08-24T02:07:59;16.23;;;9.90;;
26622;SDS011;14254;50.968;5.366;2023-08-24T02:10:24;15.95;;;8.73;;
26622;SDS011;14254;50.968;5.366;2023-08-24T02:12:51;14.80;;;8.27;;
26622;SDS011;14254;50.968;5.366;2023-08-24T02:15:17;13.55;;;8.65;;
26622;SDS011;14254;50.968;5.366;2023-08-24T02:17:42;12.98;;;9.13;;
26622;SDS011;14254;50.968;5.366;2023-08-24T02:20:08;13.05;;;8.35;;
26622;SDS011;14254;50.968;5.366;2023-08-24T02:22:36;14.07;;;8.27;;
26622;SDS011;14254;50.968;5.366;2023-08-24T02:25:05;13.80;;;8.13;;
26622;SDS011;14254;50.968;5.366;2023-08-24T02:27:34;15.77;;;8.13;;
26622;SDS011;14254;50.968;5.366;2023-08-24T02:30:00;12.23;;;8.35;;
26622;SDS011;14254;50.968;5.366;2023-08-24T02:32:25;11.25;;;8.02;;
26622;SDS011;14254;50.968;5.366;2023-08-24T02:34:51;12.20;;;7.78;;
26622;SDS011;14254;50.968;5.366;2023-08-24T02:37:17;17.20;;;8.60;;
26622;SDS011;14254;50.968;5.366;2023-08-24T02:39:42;12.40;;;7.47;;
26622;SDS011;14254;50.968;5.366;2023-08-24T02:42:08;11.95;;;7.63;;
26622;SDS011;14254;50.968;5.366;2023-08-24T02:44:34;16.50;;;7.75;;
26622;SDS011;14254;50.968;5.366;2023-08-24T02:47:01;11.40;;;7.47;;
26622;SDS011;14254;50.968;5.366;2023-08-24T02:49:26;11.88;;;6.80;;
26622;SDS011;14254;50.968;5.366;2023-08-24T02:51:52;10.95;;;7.18;;
26622;SDS011;14254;50.968;5.366;2023-08-24T02:54:18;11.05;;;7.65;;
26622;SDS011;14254;50.968;5.366;2023-08-24T02:56:44;10.10;;;7.40;;
26622;SDS011;14254;50.968;5.366;2023-08-24T02:59:09;19.95;;;8.15;;
26622;SDS011;14254;50.968;5.366;2023-08-24T03:01:35;15.18;;;8.00;;
26622;SDS011;14254;50.968;5.366;2023-08-24T03:04:03;19.88;;;8.50;;
26622;SDS011;14254;50.968;5.366;2023-08-24T03:06:30;18.40;;;8.95;;
26622;SDS011;14254;50.968;5.366;2023-08-24T03:08:56;15.20;;;8.27;;
26622;SDS011;14254;50.968;5.366;2023-08-24T03:11:21;12.90;;;7.90;;
26622;SDS011;14254;50.968;5.366;2023-08-24T03:13:47;12.02;;;8.32;;
26622;SDS011;14254;50.968;5.366;2023-08-24T03:16:13;16.48;;;7.88;;
26622;SDS011;14254;50.968;5.366;2023-08-24T03:18:38;14.98;;;8.95;;
26622;SDS011;14254;50.968;5.366;2023-08-24T03:21:05;14.50;;;9.85;;
26622;SDS011;14254;50.968;5.366;2023-08-24T03:23:31;12.57;;;8.30;;
26622;SDS011;14254;50.968;5.366;2023-08-24T03:25:57;19.73;;;10.52;;
26622;SDS011;14254;50.968;5.366;2023-08-24T03:28:23;12.65;;;8.30;;
26622;SDS011;14254;50.968;5.366;2023-08-24T03:30:49;19.10;;;8.77;;
26622;SDS011;14254;50.968;5.366;2023-08-24T03:33:16;16.80;;;9.07;;
26622;SDS011;14254;50.968;5.366;2023-08-24T03:35:42;14.13;;;9.45;;
26622;SDS011;14254;50.968;5.366;2023-08-24T03:38:08;19.08;;;9.45;;
26622;SDS011;14254;50.968;5.366;2023-08-24T03:40:34;15.02;;;9.73;;
26622;SDS011;14254;50.968;5.366;2023-08-24T03:43:01;21.05;;;9.00;;
26622;SDS011;14254;50.968;5.366;2023-08-24T03:45:27;16.83;;;9.55;;
26622;SDS011;14254;50.968;5.366;2023-08-24T03:47:53;18.45;;;9.20;;
26622;SDS011;14254;50.968;5.366;2023-08-24T03:50:19;15.13;;;9.40;;
26622;SDS011;14254;50.968;5.366;2023-08-24T03:52:44;14.45;;;9.57;;
26622;SDS011;14254;50.968;5.366;2023-08-24T03:55:10;13.20;;;9.02;;
26622;SDS011;14254;50.968;5.366;2023-08-24T03:57:36;15.18;;;9.82;;
26622;SDS011;14254;50.968;5.366;2023-08-24T04:00:03;19.33;;;8.52;;
26622;SDS011;14254;50.968;5.366;2023-08-24T04:02:32;12.68;;;8.88;;
26622;SDS011;14254;50.968;5.366;2023-08-24T04:04:58;13.07;;;9.30;;
26622;SDS011;14254;50.968;5.366;2023-08-24T04:07:23;14.35;;;8.23;;
26622;SDS011;14254;50.968;5.366;2023-08-24T04:09:49;13.35;;;8.00;;
26622;SDS011;14254;50.968;5.366;2023-08-24T04:12:15;20.23;;;8.18;;
26622;SDS011;14254;50.968;5.366;2023-08-24T04:14:40;16.40;;;8.32;;
26622;SDS011;14254;50.968;5.366;2023-08-24T04:17:06;15.60;;;8.35;;
26622;SDS011;14254;50.968;5.366;2023-08-24T04:19:31;13.93;;;8.10;;
26622;SDS011;14254;50.968;5.366;2023-08-24T04:21:57;13.68;;;8.70;;
26622;SDS011;14254;50.968;5.366;2023-08-24T04:24:23;14.23;;;8.38;;
26622;SDS011;14254;50.968;5.366;2023-08-24T04:26:50;15.95;;;7.80;;
26622;SDS011;14254;50.968;5.366;2023-08-24T04:29:16;13.82;;;7.93;;
26622;SDS011;14254;50.968;5.366;2023-08-24T04:31:42;13.85;;;8.43;;
26622;SDS011;14254;50.968;5.366;2023-08-24T04:34:08;15.55;;;8.90;;
26622;SDS011;14254;50.968;5.366;2023-08-24T04:36:34;16.17;;;9.18;;
26622;SDS011;14254;50.968;5.366;2023-08-24T04:39:00;17.67;;;9.73;;
26622;SDS011;14254;50.968;5.366;2023-08-24T04:41:26;18.50;;;10.68;;
26622;SDS011;14254;50.968;5.366;2023-08-24T04:43:52;17.05;;;10.35;;
26622;SDS011;14254;50.968;5.366;2023-08-24T04:46:19;11.48;;;9.52;;
26622;SDS011;14254;50.968;5.366;2023-08-24T04:48:45;18.00;;;9.88;;
26622;SDS011;14254;50.968;5.366;2023-08-24T04:51:11;16.50;;;9.93;;
26622;SDS011;14254;50.968;5.366;2023-08-24T04:53:36;13.70;;;9.80;;
26622;SDS011;14254;50.968;5.366;2023-08-24T04:56:02;20.92;;;9.85;;
26622;SDS011;14254;50.968;5.366;2023-08-24T04:58:27;20.00;;;10.60;;
26622;SDS011;14254;50.968;5.366;2023-08-24T05:00:53;16.48;;;10.60;;
26622;SDS011;14254;50.968;5.366;2023-08-24T05:03:20;15.70;;;10.13;;
26622;SDS011;14254;50.968;5.366;2023-08-24T05:05:46;22.65;;;11.60;;
26622;SDS011;14254;50.968;5.366;2023-08-24T05:08:12;21.13;;;10.95;;
26622;SDS011;14254;50.968;5.366;2023-08-24T05:10:38;20.20;;;11.43;;
26622;SDS011;14254;50.968;5.366;2023-08-24T05:13:04;21.05;;;10.68;;
26622;SDS011;14254;50.968;5.366;2023-08-24T05:15:30;21.90;;;10.25;;
26622;SDS011;14254;50.968;5.366;2023-08-24T05:17:56;18.30;;;10.95;;
26622;SDS011;14254;50.968;5.366;2023-08-24T05:20:24;19.05;;;11.30;;
26622;SDS011;14254;50.968;5.366;2023-08-24T05:22:53;21.85;;;11.60;;
26622;SDS011;14254;50.968;5.366;2023-08-24T05:25:22;20.30;;;12.02;;
26622;SDS011;14254;50.968;5.366;2023-08-24T05:27:48;18.35;;;11.27;;
26622;SDS011;14254;50.968;5.366;2023-08-24T05:30:14;21.55;;;11.55;;
26622;SDS011;14254;50.968;5.366;2023-08-24T05:32:40;27.10;;;11.10;;
26622;SDS011;14254;50.968;5.366;2023-08-24T05:35:06;19.92;;;11.95;;
26622;SDS011;14254;50.968;5.366;2023-08-24T05:37:32;24.45;;;12.05;;
26622;SDS011;14254;50.968;5.366;2023-08-24T05:40:01;20.83;;;10.90;;
26622;SDS011;14254;50.968;5.366;2023-08-24T05:42:28;20.50;;;11.82;;
26622;SDS011;14254;50.968;5.366;2023-08-24T05:44:53;16.33;;;10.60;;
26622;SDS011;14254;50.968;5.366;2023-08-24T05:47:19;20.45;;;11.23;;
26622;SDS011;14254;50.968;5.366;2023-08-24T05:49:45;24.73;;;10.98;;
26622;SDS011;14254;50.968;5.366;2023-08-24T05:52:10;18.58;;;10.65;;
26622;SDS011;14254;50.968;5.366;2023-08-24T05:54:36;21.40;;;11.27;;
26622;SDS011;14254;50.968;5.366;2023-08-24T05:57:03;21.30;;;10.30;;
26622;SDS011;14254;50.968;5.366;2023-08-24T05:59:29;18.33;;;10.57;;
26622;SDS011;14254;50.968;5.366;2023-08-24T06:01:55;18.42;;;10.40;;
26622;SDS011;14254;50.968;5.366;2023-08-24T06:04:21;25.25;;;10.75;;
26622;SDS011;14254;50.968;5.366;2023-08-24T06:06:46;18.67;;;9.90;;
26622;SDS011;14254;50.968;5.366;2023-08-24T06:09:12;21.30;;;11.45;;
26622;SDS011;14254;50.968;5.366;2023-08-24T06:11:40;18.52;;;10.52;;
26622;SDS011;14254;50.968;5.366;2023-08-24T06:14:05;21.70;;;10.05;;
26622;SDS011;14254;50.968;5.366;2023-08-24T06:16:31;17.50;;;8.57;;
26622;SDS011;14254;50.968;5.366;2023-08-24T06:18:57;21.25;;;10.88;;
26622;SDS011;14254;50.968;5.366;2023-08-24T06:21:22;17.98;;;8.73;;
26622;SDS011;14254;50.968;5.366;2023-08-24T06:23:48;17.38;;;9.38;;
26622;SDS011;14254;50.968;5.366;2023-08-24T06:26:14;19.25;;;9.45;;
26622;SDS011;14254;50.968;5.366;2023-08-24T06:28:40;18.02;;;9.30;;
26622;SDS011;14254;50.968;5.366;2023-08-24T06:31:05;14.88;;;9.55;;
26622;SDS011;14254;50.968;5.366;2023-08-24T06:33:34;14.43;;;8.57;;
26622;SDS011;14254;50.968;5.366;2023-08-24T06:36:01;16.85;;;8.45;;
26622;SDS011;14254;50.968;5.366;2023-08-24T06:38:27;13.10;;;8.60;;
26622;SDS011;14254;50.968;5.366;2023-08-24T06:40:54;16.75;;;7.65;;
26622;SDS011;14254;50.968;5.366;2023-08-24T06:43:19;14.20;;;9.18;;
26622;SDS011;14254;50.968;5.366;2023-08-24T06:45:45;13.32;;;7.97;;
26622;SDS011;14254;50.968;5.366;2023-08-24T06:48:11;17.15;;;8.68;;
26622;SDS011;14254;50.968;5.366;2023-08-24T06:50:37;19.08;;;7.60;;
26622;SDS011;14254;50.968;5.366;2023-08-24T06:53:03;14.73;;;8.77;;
26622;SDS011;14254;50.968;5.366;2023-08-24T06:55:29;20.33;;;7.50;;
26622;SDS011;14254;50.968;5.366;2023-08-24T06:57:55;9.93;;;6.93;;
26622;SDS011;14254;50.968;5.366;2023-08-24T07:00:21;19.17;;;7.82;;
26622;SDS011;14254;50.968;5.366;2023-08-24T07:02:48;16.38;;;8.05;;
26622;SDS011;14254;50.968;5.366;2023-08-24T07:05:14;13.60;;;7.43;;
26622;SDS011;14254;50.968;5.366;2023-08-24T07:07:44;14.60;;;7.40;;
26622;SDS011;14254;50.968;5.366;2023-08-24T07:10:11;11.68;;;7.53;;
26622;SDS011;14254;50.968;5.366;2023-08-24T07:12:36;10.05;;;6.57;;
26622;SDS011;14254;50.968;5.366;2023-08-24T07:15:04;12.05;;;7.10;;
26622;SDS011;14254;50.968;5.366;2023-08-24T07:17:30;10.63;;;5.85;;
26622;SDS011;14254;50.968;5.366;2023-08-24T07:19:56;17.25;;;7.68;;
26622;SDS011;14254;50.968;5.366;2023-08-24T07:22:22;12.23;;;5.72;;
26622;SDS011;14254;50.968;5.366;2023-08-24T07:24:47;10.85;;;5.85;;
26622;SDS011;14254;50.968;5.366;2023-08-24T07:27:17;12.80;;;5.65;;
26622;SDS011;14254;50.968;5.366;2023-08-24T07:29:43;12.25;;;5.32;;
26622;SDS011;14254;50.968;5.366;2023-08-24T07:32:09;7.82;;;6.03;;
26622;SDS011;14254;50.968;5.366;2023-08-24T07:34:34;11.65;;;4.85;;
26622;SDS011;14254;50.968;5.366;2023-08-24T07:37:00;10.30;;;5.18;;
26622;SDS011;14254;50.968;5.366;2023-08-24T07:39:26;10.38;;;5.13;;
26622;SDS011;14254;50.968;5.366;2023-08-24T07:41:51;8.50;;;4.82;;
26622;SDS011;14254;50.968;5.366;2023-08-24T07:44:17;11.85;;;6.50;;
26622;SDS011;14254;50.968;5.366;2023-08-24T07:46:43;9.75;;;6.35;;
26622;SDS011;14254;50.968;5.366;2023-08-24T07:49:09;14.18;;;5.65;;
26622;SDS011;14254;50.968;5.366;2023-08-24T07:51:35;14.00;;;5.50;;
26622;SDS011;14254;50.968;5.366;2023-08-24T07:54:01;13.52;;;5.13;;
26622;SDS011;14254;50.968;5.366;2023-08-24T07:56:29;12.13;;;5.25;;
26622;SDS011;14254;50.968;5.366;2023-08-24T07:58:55;13.95;;;5.15;;
26622;SDS011;14254;50.968;5.366;2023-08-24T08:01:21;8.60;;;4.80;;
26622;SDS011;14254;50.968;5.366;2023-08-24T08:03:46;8.65;;;3.90;;
26622;SDS011;14254;50.968;5.366;2023-08-24T08:06:12;11.10;;;4.78;;
26622;SDS011;14254;50.968;5.366;2023-08-24T08:08:38;9.45;;;4.03;;
26622;SDS011;14254;50.968;5.366;2023-08-24T08:11:04;7.18;;;3.78;;
26622;SDS011;14254;50.968;5.366;2023-08-24T08:13:30;7.55;;;3.78;;
26622;SDS011;14254;50.968;5.366;2023-08-24T08:16:05;11.75;;;4.10;;
26622;SDS011;14254;50.968;5.366;2023-08-24T08:18:32;6.65;;;3.80;;
26622;SDS011;14254;50.968;5.366;2023-08-24T08:20:59;9.23;;;3.65;;
26622;SDS011;14254;50.968;5.366;2023-08-24T08:23:25;6.38;;;3.72;;
26622;SDS011;14254;50.968;5.366;2023-08-24T08:25:51;6.60;;;3.90;;
26622;SDS011;14254;50.968;5.366;2023-08-24T08:28:17;6.63;;;4.05;;
26622;SDS011;14254;50.968;5.366;2023-08-24T08:30:43;10.88;;;4.00;;
26622;SDS011;14254;50.968;5.366;2023-08-24T08:33:13;10.15;;;4.35;;
26622;SDS011;14254;50.968;5.366;2023-08-24T08:35:39;6.00;;;3.55;;
26622;SDS011;14254;50.968;5.366;2023-08-24T08:38:06;8.98;;;3.50;;
26622;SDS011;14254;50.968;5.366;2023-08-24T08:40:32;10.70;;;4.15;;
26622;SDS011;14254;50.968;5.366;2023-08-24T08:43:02;12.07;;;4.57;;
26622;SDS011;14254;50.968;5.366;2023-08-24T08:45:28;7.75;;;3.95;;
26622;SDS011;14254;50.968;5.366;2023-08-24T08:47:57;7.57;;;3.88;;
26622;SDS011;14254;50.968;5.366;2023-08-24T08:50:24;10.70;;;4.05;;
26622;SDS011;14254;50.968;5.366;2023-08-24T08:52:50;8.10;;;3.80;;
26622;SDS011;14254;50.968;5.366;2023-08-24T08:55:16;6.53;;;3.45;;
26622;SDS011;14254;50.968;5.366;2023-08-24T08:57:43;10.75;;;3.88;;
26622;SDS011;14254;50.968;5.366;2023-08-24T09:00:11;7.28;;;4.10;;
26622;SDS011;14254;50.968;5.366;2023-08-24T09:02:41;9.02;;;4.68;;
26622;SDS011;14254;50.968;5.366;2023-08-24T09:05:09;7.05;;;3.53;;
26622;SDS011;14254;50.968;5.366;2023-08-24T09:07:35;7.45;;;3.95;;
26622;SDS011;14254;50.968;5.366;2023-08-24T09:10:02;7.38;;;4.38;;
26622;SDS011;14254;50.968;5.366;2023-08-24T09:12:32;8.48;;;3.78;;
26622;SDS011;14254;50.968;5.366;2023-08-24T09:14:59;8.20;;;3.50;;
26622;SDS011;14254;50.968;5.366;2023-08-24T09:17:24;5.68;;;3.78;;
26622;SDS011;14254;50.968;5.366;2023-08-24T09:19:50;6.28;;;4.20;;
26622;SDS011;14254;50.968;5.366;2023-08-24T09:22:18;7.40;;;4.10;;
26622;SDS011;14254;50.968;5.366;2023-08-24T09:24:44;8.55;;;4.03;;
26622;SDS011;14254;50.968;5.366;2023-08-24T09:27:17;10.40;;;3.80;;
26622;SDS011;14254;50.968;5.366;2023-08-24T09:29:47;7.32;;;3.60;;
26622;SDS011;14254;50.968;5.366;2023-08-24T09:32:23;6.43;;;3.47;;
26622;SDS011;14254;50.968;5.366;2023-08-24T09:34:52;7.18;;;4.40;;
26622;SDS011;14254;50.968;5.366;2023-08-24T09:37:17;11.18;;;3.47;;
26622;SDS011;14254;50.968;5.366;2023-08-24T09:39:44;10.13;;;4.05;;
26622;SDS011;14254;50.968;5.366;2023-08-24T09:42:10;6.45;;;3.65;;
26622;SDS011;14254;50.968;5.366;2023-08-24T09:44:37;6.30;;;4.45;;
26622;SDS011;14254;50.968;5.366;2023-08-24T09:47:08;9.70;;;3.85;;
26622;SDS011;14254;50.968;5.366;2023-08-24T09:49:36;7.05;;;4.38;;
26622;SDS011;14254;50.968;5.366;2023-08-24T09:52:01;6.43;;;3.42;;
26622;SDS011;14254;50.968;5.366;2023-08-24T09:54:35;6.72;;;3.95;;
26622;SDS011;14254;50.968;5.366;2023-08-24T09:57:04;10.88;;;3.78;;
26622;SDS011;14254;50.968;5.366;2023-08-24T09:59:32;6.05;;;3.70;;
26622;SDS011;14254;50.968;5.366;2023-08-24T10:01:58;10.80;;;4.40;;
26622;SDS011;14254;50.968;5.366;2023-08-24T10:04:30;7.40;;;3.83;;
26622;SDS011;14254;50.968;5.366;2023-08-24T10:07:00;7.25;;;3.50;;
26622;SDS011;14254;50.968;5.366;2023-08-24T10:09:31;6.25;;;3.80;;
26622;SDS011;14254;50.968;5.366;2023-08-24T10:12:04;9.48;;;3.78;;
26622;SDS011;14254;50.968;5.366;2023-08-24T10:14:33;6.40;;;3.47;;
26622;SDS011;14254;50.968;5.366;2023-08-24T10:17:04;13.02;;;4.15;;
26622;SDS011;14254;50.968;5.366;2023-08-24T10:19:31;12.02;;;4.53;;
26622;SDS011;14254;50.968;5.366;2023-08-24T10:21:57;10.65;;;4.28;;
26622;SDS011;14254;50.968;5.366;2023-08-24T10:24:25;13.20;;;4.07;;
26622;SDS011;14254;50.968;5.366;2023-08-24T10:26:52;11.55;;;4.75;;
26622;SDS011;14254;50.968;5.366;2023-08-24T10:29:19;10.10;;;4.57;;
26622;SDS011;14254;50.968;5.366;2023-08-24T10:31:46;8.82;;;4.80;;
26622;SDS011;14254;50.968;5.366;2023-08-24T10:34:13;8.35;;;4.75;;
26622;SDS011;14254;50.968;5.366;2023-08-24T10:36:40;12.68;;;5.80;;
26622;SDS011;14254;50.968;5.366;2023-08-24T10:39:06;9.93;;;4.60;;
26622;SDS011;14254;50.968;5.366;2023-08-24T10:41:48;9.35;;;5.18;;
26622;SDS011;14254;50.968;5.366;2023-08-24T10:44:24;10.45;;;5.28;;
26622;SDS011;14254;50.968;5.366;2023-08-24T10:49:41;8.98;;;5.47;;
26622;SDS011;14254;50.968;5.366;2023-08-24T10:52:17;9.70;;;5.43;;
26622;SDS011;14254;50.968;5.366;2023-08-24T10:54:47;14.65;;;5.53;;
26622;SDS011;14254;50.968;5.366;2023-08-24T10:57:17;8.20;;;5.80;;
26622;SDS011;14254;50.968;5.366;2023-08-24T10:59:59;16.48;;;6.63;;
26622;SDS011;14254;50.968;5.366;2023-08-24T11:02:43;16.77;;;7.55;;
26622;SDS011;14254;50.968;5.366;2023-08-24T11:08:14;12.07;;;7.25;;
26622;SDS011;14254;50.968;5.366;2023-08-24T11:13:09;11.98;;;7.80;;
26622;SDS011;14254;50.968;5.366;2023-08-24T11:15:43;12.45;;;7.45;;
26622;SDS011;14254;50.968;5.366;2023-08-24T11:20:53;15.43;;;8.30;;
26622;SDS011;14254;50.968;5.366;2023-08-24T11:23:29;12.07;;;7.63;;
26622;SDS011;14254;50.968;5.366;2023-08-24T11:25:56;13.20;;;7.95;;
26622;SDS011;14254;50.968;5.366;2023-08-24T11:28:28;11.43;;;8.02;;
26622;SDS011;14254;50.968;5.366;2023-08-24T11:30:55;15.50;;;10.27;;
26622;SDS011;14254;50.968;5.366;2023-08-24T11:33:31;12.32;;;7.78;;
26622;SDS011;14254;50.968;5.366;2023-08-24T11:35:59;16.55;;;9.13;;
26622;SDS011;14254;50.968;5.366;2023-08-24T11:38:28;13.05;;;8.90;;
26622;SDS011;14254;50.968;5.366;2023-08-24T11:41:10;10.45;;;7.68;;
26622;SDS011;14254;50.968;5.366;2023-08-24T11:43:38;15.10;;;9.13;;
26622;SDS011;14254;50.968;5.366;2023-08-24T11:46:03;10.45;;;8.63;;
26622;SDS011;14254;50.968;5.366;2023-08-24T11:48:29;11.32;;;8.82;;
26622;SDS011;14254;50.968;5.366;2023-08-24T11:50:57;15.75;;;9.18;;
26622;SDS011;14254;50.968;5.366;2023-08-24T11:53:23;20.40;;;9.80;;
26622;SDS011;14254;50.968;5.366;2023-08-24T11:55:49;16.45;;;9.30;;
26622;SDS011;14254;50.968;5.366;2023-08-24T11:58:17;13.25;;;9.23;;
26622;SDS011;14254;50.968;5.366;2023-08-24T12:00:43;14.55;;;9.13;;
26622;SDS011;14254;50.968;5.366;2023-08-24T12:03:11;13.05;;;9.52;;
26622;SDS011;14254;50.968;5.366;2023-08-24T12:05:37;11.52;;;8.05;;
26622;SDS011;14254;50.968;5.366;2023-08-24T12:08:03;15.63;;;8.25;;
26622;SDS011;14254;50.968;5.366;2023-08-24T12:10:29;13.30;;;7.78;;
26622;SDS011;14254;50.968;5.366;2023-08-24T12:13:03;14.52;;;7.45;;
26622;SDS011;14254;50.968;5.366;2023-08-24T12:15:36;11.73;;;7.25;;
26622;SDS011;14254;50.968;5.366;2023-08-24T12:18:12;13.20;;;7.28;;
26622;SDS011;14254;50.968;5.366;2023-08-24T12:20:39;10.80;;;7.47;;
26622;SDS011;14254;50.968;5.366;2023-08-24T12:23:06;8.05;;;6.72;;
26622;SDS011;14254;50.968;5.366;2023-08-24T12:25:41;11.02;;;6.65;;
26622;SDS011;14254;50.968;5.366;2023-08-24T12:28:08;12.38;;;7.25;;
26622;SDS011;14254;50.968;5.366;2023-08-24T12:30:45;9.15;;;7.13;;
26622;SDS011;14254;50.968;5.366;2023-08-24T12:33:25;15.80;;;7.15;;
26622;SDS011;14254;50.968;5.366;2023-08-24T12:35:53;11.90;;;6.97;;
26622;SDS011;14254;50.968;5.366;2023-08-24T12:38:20;10.48;;;6.78;;
26622;SDS011;14254;50.968;5.366;2023-08-24T12:40:47;10.25;;;6.50;;
26622;SDS011;14254;50.968;5.366;2023-08-24T12:43:12;11.88;;;6.80;;
26622;SDS011;14254;50.968;5.366;2023-08-24T12:45:39;10.15;;;6.80;;
26622;SDS011;14254;50.968;5.366;2023-08-24T12:48:06;8.48;;;5.95;;
26622;SDS011;14254;50.968;5.366;2023-08-24T12:50:35;9.88;;;5.47;;
26622;SDS011;14254;50.968;5.366;2023-08-24T12:53:01;8.52;;;4.97;;
26622;SDS011;14254;50.968;5.366;2023-08-24T12:55:28;10.95;;;5.20;;
26622;SDS011;14254;50.968;5.366;2023-08-24T12:57:54;6.97;;;4.70;;
26622;SDS011;14254;50.968;5.366;2023-08-24T13:00:20;7.20;;;5.00;;
26622;SDS011;14254;50.968;5.366;2023-08-24T13:02:47;9.27;;;4.85;;
26622;SDS011;14254;50.968;5.366;2023-08-24T13:05:13;7.43;;;4.93;;
26622;SDS011;14254;50.968;5.366;2023-08-24T13:07:39;7.43;;;4.63;;
26622;SDS011;14254;50.968;5.366;2023-08-24T13:10:05;13.02;;;5.13;;
26622;SDS011;14254;50.968;5.366;2023-08-24T13:12:31;8.85;;;4.95;;
26622;SDS011;14254;50.968;5.366;2023-08-24T13:14:58;10.43;;;5.10;;
26622;SDS011;14254;50.968;5.366;2023-08-24T13:17:23;9.45;;;5.18;;
26622;SDS011;14254;50.968;5.366;2023-08-24T13:19:49;7.10;;;5.15;;
26622;SDS011;14254;50.968;5.366;2023-08-24T13:22:15;7.20;;;5.63;;
26622;SDS011;14254;50.968;5.366;2023-08-24T13:24:41;9.57;;;5.40;;
26622;SDS011;14254;50.968;5.366;2023-08-24T13:27:09;10.43;;;5.78;;
26622;SDS011;14254;50.968;5.366;2023-08-24T13:29:38;8.93;;;6.00;;
26622;SDS011;14254;50.968;5.366;2023-08-24T13:32:07;10.55;;;6.07;;
26622;SDS011;14254;50.968;5.366;2023-08-24T13:34:33;9.63;;;5.95;;
26622;SDS011;14254;50.968;5.366;2023-08-24T13:36:59;11.70;;;6.22;;
26622;SDS011;14254;50.968;5.366;2023-08-24T13:39:25;10.55;;;5.93;;
26622;SDS011;14254;50.968;5.366;2023-08-24T13:41:53;9.60;;;5.53;;
26622;SDS011;14254;50.968;5.366;2023-08-24T13:44:19;8.05;;;6.03;;
26622;SDS011;14254;50.968;5.366;2023-08-24T13:46:45;9.93;;;5.18;;
26622;SDS011;14254;50.968;5.366;2023-08-24T13:49:11;7.75;;;4.80;;
26622;SDS011;14254;50.968;5.366;2023-08-24T13:51:37;7.60;;;4.53;;
26622;SDS011;14254;50.968;5.366;2023-08-24T13:54:11;11.52;;;4.03;;
26622;SDS011;14254;50.968;5.366;2023-08-24T13:56:41;8.23;;;2.75;;
26622;SDS011;14254;50.968;5.366;2023-08-24T13:59:07;7.05;;;4.30;;
26622;SDS011;14254;50.968;5.366;2023-08-24T14:01:33;10.23;;;2.85;;
26622;SDS011;14254;50.968;5.366;2023-08-24T14:03:58;9.25;;;2.65;;
26622;SDS011;14254;50.968;5.366;2023-08-24T14:06:24;2.90;;;2.63;;
26622;SDS011;14254;50.968;5.366;2023-08-24T14:08:53;5.97;;;2.78;;
26622;SDS011;14254;50.968;5.366;2023-08-24T14:11:18;9.48;;;2.88;;
26622;SDS011;14254;50.968;5.366;2023-08-24T14:13:44;5.47;;;3.40;;
26622;SDS011;14254;50.968;5.366;2023-08-24T14:16:10;6.57;;;3.40;;
26622;SDS011;14254;50.968;5.366;2023-08-24T14:18:36;5.45;;;2.67;;
26622;SDS011;14254;50.968;5.366;2023-08-24T14:21:02;5.85;;;2.97;;
26622;SDS011;14254;50.968;5.366;2023-08-24T14:23:28;9.48;;;3.25;;
26622;SDS011;14254;50.968;5.366;2023-08-24T14:25:53;4.07;;;2.67;;
26622;SDS011;14254;50.968;5.366;2023-08-24T14:28:20;7.07;;;2.47;;
26622;SDS011;14254;50.968;5.366;2023-08-24T14:30:47;3.92;;;2.55;;
26622;SDS011;14254;50.968;5.366;2023-08-24T14:33:16;5.57;;;2.70;;
26622;SDS011;14254;50.968;5.366;2023-08-24T14:35:52;3.80;;;2.65;;
26622;SDS011;14254;50.968;5.366;2023-08-24T14:38:18;3.88;;;2.55;;
26622;SDS011;14254;50.968;5.366;2023-08-24T14:40:44;5.47;;;2.40;;
26622;SDS011;14254;50.968;5.366;2023-08-24T14:43:10;7.03;;;2.70;;
26622;SDS011;14254;50.968;5.366;2023-08-24T14:45:35;3.88;;;2.90;;
26622;SDS011;14254;50.968;5.366;2023-08-24T14:48:02;5.65;;;2.50;;
26622;SDS011;14254;50.968;5.366;2023-08-24T14:50:27;3.28;;;2.35;;
26622;SDS011;14254;50.968;5.366;2023-08-24T14:52:53;4.38;;;2.65;;
26622;SDS011;14254;50.968;5.366;2023-08-24T14:55:19;5.07;;;2.45;;